sensor_id;sensor_type;location;lat;lon;timestamp;pressure;altitude;pressure_sealevel;temperature;humidity
48402;BME280;65988;52.422;16.746;2023-04-26T00:05:20;98869.28;;;19.05;36.91
48402;BME280;65988;52.422;16.746;2023-04-26T00:08:08;98583.81;;;18.44;37.20
48402;BME280;65988;52.422;16.746;2023-04-26T00:10:44;98796.53;;;18.35;37.45
48402;BME280;65988;52.422;16.746;2023-04-26T00:13:28;98746.56;;;17.96;37.56
48402;BME280;65988;52.422;16.746;2023-04-26T00:15:59;98503.81;;;17.18;37.78
48402;BME280;65988;52.422;16.746;2023-04-26T00:18:27;98702.69;;;18.00;37.16
48402;BME280;65988;52.422;16.746;2023-04-26T00:21:42;98818.91;;;18.70;36.67
48402;BME280;65988;52.422;16.746;2023-04-26T00:30:43;98799.56;;;18.61;36.82
48402;BME280;65988;52.422;16.746;2023-04-26T00:36:50;98764.50;;;18.43;36.84
48402;BME280;65988;52.422;16.746;2023-04-26T00:42:16;98709.63;;;17.89;36.80
48402;BME280;65988;52.422;16.746;2023-04-26T00:44:48;98777.13;;;17.52;37.94
48402;BME280;65988;52.422;16.746;2023-04-26T00:47:53;98858.97;;;18.40;37.03
48402;BME280;65988;52.422;16.746;2023-04-26T00:50:45;98799.41;;;18.32;36.89
48402;BME280;65988;52.422;16.746;2023-04-26T00:53:32;98823.56;;;18.67;36.58
48402;BME280;65988;52.422;16.746;2023-04-26T00:56:08;98864.81;;;18.53;36.81
48402;BME280;65988;52.422;16.746;2023-04-26T00:59:25;98880.31;;;19.39;35.72
48402;BME280;65988;52.422;16.746;2023-04-26T01:02:02;98806.69;;;18.50;36.58
48402;BME280;65988;52.422;16.746;2023-04-26T01:04:30;98886.97;;;19.22;35.92
48402;BME280;65988;52.422;16.746;2023-04-26T01:10:24;98787.56;;;17.95;37.39
48402;BME280;65988;52.422;16.746;2023-04-26T01:16:31;98880.75;;;18.29;37.18
48402;BME280;65988;52.422;16.746;2023-04-26T01:19:12;98765.75;;;17.74;37.38
48402;BME280;65988;52.422;16.746;2023-04-26T01:22:21;98838.59;;;17.78;37.44
48402;BME280;65988;52.422;16.746;2023-04-26T01:25:20;98736.63;;;17.02;38.05
48402;BME280;65988;52.422;16.746;2023-04-26T01:34:55;98727.44;;;17.63;36.94
48402;BME280;65988;52.422;16.746;2023-04-26T01:44:30;98786.78;;;17.72;37.05
48402;BME280;65988;52.422;16.746;2023-04-26T01:47:32;98834.00;;;18.03;36.85
48402;BME280;65988;52.422;16.746;2023-04-26T01:50:18;98783.44;;;18.14;36.49
48402;BME280;65988;52.422;16.746;2023-04-26T01:58:51;98808.13;;;17.56;37.31
48402;BME280;65988;52.422;16.746;2023-04-26T02:01:40;98820.53;;;17.20;37.89
48402;BME280;65988;52.422;16.746;2023-04-26T02:04:45;98787.84;;;17.37;37.35
48402;BME280;65988;52.422;16.746;2023-04-26T02:07:13;98754.66;;;17.17;37.51
48402;BME280;65988;52.422;16.746;2023-04-26T02:10:43;98825.38;;;17.25;37.65
48402;BME280;65988;52.422;16.746;2023-04-26T02:13:21;98723.09;;;16.74;37.65
48402;BME280;65988;52.422;16.746;2023-04-26T02:16:08;98770.91;;;16.64;38.17
48402;BME280;65988;52.422;16.746;2023-04-26T02:19:04;98788.94;;;16.78;38.08
48402;BME280;65988;52.422;16.746;2023-04-26T02:25:00;98638.31;;;15.89;38.47
48402;BME280;65988;52.422;16.746;2023-04-26T02:31:16;98927.47;;;17.78;37.35
48402;BME280;65988;52.422;16.746;2023-04-26T02:34:20;98785.69;;;17.42;37.23
48402;BME280;65988;52.422;16.746;2023-04-26T02:37:13;98693.31;;;16.66;37.65
48402;BME280;65988;52.422;16.746;2023-04-26T02:40:10;98776.47;;;16.70;38.21
48402;BME280;65988;52.422;16.746;2023-04-26T02:52:54;98638.81;;;16.17;38.03
48402;BME280;65988;52.422;16.746;2023-04-26T02:58:52;98768.69;;;16.12;38.42
48402;BME280;65988;52.422;16.746;2023-04-26T03:01:46;98863.56;;;16.81;38.21
48402;BME280;65988;52.422;16.746;2023-04-26T03:08:07;98420.56;;;15.63;38.08
48402;BME280;65988;52.422;16.746;2023-04-26T03:17:28;98820.13;;;16.57;38.36
48402;BME280;65988;52.422;16.746;2023-04-26T03:20:13;98770.94;;;16.17;38.70
48402;BME280;65988;52.422;16.746;2023-04-26T03:22:41;98506.72;;;15.37;38.90
48402;BME280;65988;52.422;16.746;2023-04-26T03:25:12;98932.88;;;16.25;39.24
48402;BME280;65988;52.422;16.746;2023-04-26T03:28:00;98896.31;;;16.38;38.94
48402;BME280;65988;52.422;16.746;2023-04-26T03:36:15;98854.56;;;16.38;38.79
48402;BME280;65988;52.422;16.746;2023-04-26T03:39:04;98813.66;;;16.27;38.65
48402;BME280;65988;52.422;16.746;2023-04-26T03:42:01;98820.03;;;15.74;39.47
48402;BME280;65988;52.422;16.746;2023-04-26T03:44:57;98937.44;;;16.70;38.95
48402;BME280;65988;52.422;16.746;2023-04-26T03:50:38;98662.69;;;15.53;38.96
48402;BME280;65988;52.422;16.746;2023-04-26T03:53:21;98833.38;;;16.07;39.22
48402;BME280;65988;52.422;16.746;2023-04-26T03:55:55;98934.38;;;16.40;39.59
48402;BME280;65988;52.422;16.746;2023-04-26T03:58:39;98945.97;;;16.96;38.39
48402;BME280;65988;52.422;16.746;2023-04-26T04:01:23;98815.06;;;15.96;39.26
48402;BME280;65988;52.422;16.746;2023-04-26T04:03:51;98540.03;;;14.74;39.96
48402;BME280;65988;52.422;16.746;2023-04-26T04:06:42;98893.66;;;16.27;39.19
48402;BME280;65988;52.422;16.746;2023-04-26T04:09:23;98903.34;;;16.49;38.92
48402;BME280;65988;52.422;16.746;2023-04-26T04:15:28;98962.88;;;17.26;38.05
48402;BME280;65988;52.422;16.746;2023-04-26T04:18:18;99006.00;;;17.43;37.89
48402;BME280;65988;52.422;16.746;2023-04-26T04:21:22;98947.44;;;17.34;37.63
48402;BME280;65988;52.422;16.746;2023-04-26T04:24:25;98945.75;;;17.10;38.17
48402;BME280;65988;52.422;16.746;2023-04-26T04:27:19;98917.03;;;17.22;37.67
48402;BME280;65988;52.422;16.746;2023-04-26T04:32:44;98647.94;;;16.23;37.97
48402;BME280;65988;52.422;16.746;2023-04-26T04:38:57;99130.91;;;17.73;38.29
48402;BME280;65988;52.422;16.746;2023-04-26T04:41:36;99131.06;;;17.94;37.87
48402;BME280;65988;52.422;16.746;2023-04-26T04:44:12;98843.13;;;17.65;36.78
48402;BME280;65988;52.422;16.746;2023-04-26T04:47:28;98903.88;;;17.57;37.26
48402;BME280;65988;52.422;16.746;2023-04-26T04:50:22;99043.81;;;18.07;37.15
48402;BME280;65988;52.422;16.746;2023-04-26T04:53:03;99170.56;;;18.37;37.78
48402;BME280;65988;52.422;16.746;2023-04-26T04:55:34;98996.84;;;17.37;38.29
48402;BME280;65988;52.422;16.746;2023-04-26T04:58:15;99005.66;;;17.70;37.65
48402;BME280;65988;52.422;16.746;2023-04-26T05:00:52;99089.47;;;17.91;38.03
48402;BME280;65988;52.422;16.746;2023-04-26T05:03:47;99111.34;;;18.13;37.96
48402;BME280;65988;52.422;16.746;2023-04-26T05:06:40;99037.63;;;17.04;38.68
48402;BME280;65988;52.422;16.746;2023-04-26T05:09:08;98682.31;;;16.73;37.45
48402;BME280;65988;52.422;16.746;2023-04-26T05:11:36;98630.38;;;16.25;38.09
48402;BME280;65988;52.422;16.746;2023-04-26T05:14:14;99161.78;;;18.04;38.22
48402;BME280;65988;52.422;16.746;2023-04-26T05:16:45;98713.03;;;16.58;37.90
48402;BME280;65988;52.422;16.746;2023-04-26T05:19:10;98874.78;;;17.28;38.06
48402;BME280;65988;52.422;16.746;2023-04-26T05:21:47;99137.41;;;18.26;37.64
48402;BME280;65988;52.422;16.746;2023-04-26T05:24:19;98803.06;;;17.09;38.09
48402;BME280;65988;52.422;16.746;2023-04-26T05:26:47;98678.53;;;17.54;36.86
48402;BME280;65988;52.422;16.746;2023-04-26T05:29:14;98778.88;;;17.62;37.00
48402;BME280;65988;52.422;16.746;2023-04-26T05:31:40;98744.06;;;17.62;36.65
48402;BME280;65988;52.422;16.746;2023-04-26T05:34:08;99180.31;;;19.35;36.34
48402;BME280;65988;52.422;16.746;2023-04-26T05:36:33;98906.00;;;18.72;36.18
48402;BME280;65988;52.422;16.746;2023-04-26T05:38:59;98789.66;;;18.34;36.02
48402;BME280;65988;52.422;16.746;2023-04-26T05:41:35;99207.16;;;19.81;36.05
48402;BME280;65988;52.422;16.746;2023-04-26T05:44:27;99049.19;;;19.25;36.09
48402;BME280;65988;52.422;16.746;2023-04-26T05:47:00;99312.69;;;20.27;36.02
48402;BME280;65988;52.422;16.746;2023-04-26T05:49:42;99264.75;;;19.82;36.58
48402;BME280;65988;52.422;16.746;2023-04-26T05:55:52;98983.13;;;19.83;34.77
48402;BME280;65988;52.422;16.746;2023-04-26T06:01:43;99089.16;;;20.62;34.44
48402;BME280;65988;52.422;16.746;2023-04-26T06:04:25;99193.41;;;20.81;34.41
48402;BME280;65988;52.422;16.746;2023-04-26T06:16:28;99161.25;;;21.77;33.31
48402;BME280;65988;52.422;16.746;2023-04-26T06:19:42;99301.97;;;23.25;32.37
48402;BME280;65988;52.422;16.746;2023-04-26T06:26:54;98952.84;;;21.46;32.56
48402;BME280;65988;52.422;16.746;2023-04-26T06:43:34;99141.97;;;23.88;30.30
48402;BME280;65988;52.422;16.746;2023-04-26T06:57:39;99073.56;;;23.42;30.50
48402;BME280;65988;52.422;16.746;2023-04-26T07:05:45;99239.84;;;24.21;30.45
48402;BME280;65988;52.422;16.746;2023-04-26T07:23:19;99040.28;;;24.10;29.70
48402;BME280;65988;52.422;16.746;2023-04-26T07:33:48;99058.88;;;24.00;29.80
48402;BME280;65988;52.422;16.746;2023-04-26T09:38:51;98760.22;;;24.45;26.60
48402;BME280;65988;52.422;16.746;2023-04-26T09:57:11;98794.88;;;24.41;26.37
48402;BME280;65988;52.422;16.746;2023-04-26T10:09:48;98909.13;;;25.81;25.87
48402;BME280;65988;52.422;16.746;2023-04-26T10:12:28;98799.31;;;24.41;26.58
48402;BME280;65988;52.422;16.746;2023-04-26T10:48:42;98863.06;;;27.64;23.92
48402;BME280;65988;52.422;16.746;2023-04-26T10:54:22;98849.69;;;26.15;24.71
48402;BME280;65988;52.422;16.746;2023-04-26T10:57:53;99224.16;;;27.94;25.31
48402;BME280;65988;52.422;16.746;2023-04-26T11:12:44;99119.31;;;26.27;25.94
48402;BME280;65988;52.422;16.746;2023-04-26T11:16:00;99229.59;;;28.90;24.69
48402;BME280;65988;52.422;16.746;2023-04-26T11:27:26;98829.25;;;25.06;25.80
48402;BME280;65988;52.422;16.746;2023-04-26T11:30:04;99119.22;;;26.04;26.18
48402;BME280;65988;52.422;16.746;2023-04-26T11:32:37;98861.41;;;25.26;25.49
48402;BME280;65988;52.422;16.746;2023-04-26T11:35:32;99160.63;;;26.45;25.91
48402;BME280;65988;52.422;16.746;2023-04-26T11:38:31;99081.75;;;28.23;24.63
48402;BME280;65988;52.422;16.746;2023-04-26T11:41:28;99184.22;;;29.13;24.10
48402;BME280;65988;52.422;16.746;2023-04-26T11:51:03;98775.47;;;27.12;24.04
48402;BME280;65988;52.422;16.746;2023-04-26T11:54:01;98904.44;;;26.98;23.61
48402;BME280;65988;52.422;16.746;2023-04-26T11:56:32;98964.41;;;27.38;24.09
48402;BME280;65988;52.422;16.746;2023-04-26T11:59:06;98917.69;;;27.73;23.97
48402;BME280;65988;52.422;16.746;2023-04-26T12:01:34;98637.63;;;25.63;24.01
48402;BME280;65988;52.422;16.746;2023-04-26T12:04:23;98950.69;;;26.81;23.86
48402;BME280;65988;52.422;16.746;2023-04-26T12:07:10;99269.00;;;29.16;23.82
48402;BME280;65988;52.422;16.746;2023-04-26T12:13:29;98742.34;;;26.72;24.11
48402;BME280;65988;52.422;16.746;2023-04-26T12:15:55;98781.56;;;26.08;24.50
48402;BME280;65988;52.422;16.746;2023-04-26T12:18:28;98874.19;;;25.85;24.83
48402;BME280;65988;52.422;16.746;2023-04-26T12:20:58;99042.75;;;26.09;25.69
48402;BME280;65988;52.422;16.746;2023-04-26T12:23:23;98628.25;;;24.03;25.28
48402;BME280;65988;52.422;16.746;2023-04-26T12:26:06;99058.28;;;26.12;25.94
48402;BME280;65988;52.422;16.746;2023-04-26T12:29:10;99098.56;;;27.17;25.00
48402;BME280;65988;52.422;16.746;2023-04-26T12:32:25;99309.00;;;30.31;23.94
48402;BME280;65988;52.422;16.746;2023-04-26T12:42:11;98950.03;;;27.47;23.58
48402;BME280;65988;52.422;16.746;2023-04-26T12:45:02;99026.72;;;27.42;24.21
48402;BME280;65988;52.422;16.746;2023-04-26T12:50:25;98530.88;;;23.69;24.76
48402;BME280;65988;52.422;16.746;2023-04-26T12:52:59;98864.31;;;25.48;24.48
48402;BME280;65988;52.422;16.746;2023-04-26T12:55:28;98894.31;;;26.03;24.51
48402;BME280;65988;52.422;16.746;2023-04-26T12:57:55;99075.69;;;27.54;24.45
48402;BME280;65988;52.422;16.746;2023-04-26T13:00:23;98733.38;;;25.43;24.60
48402;BME280;65988;52.422;16.746;2023-04-26T13:02:56;98486.91;;;23.45;25.30
48402;BME280;65988;52.422;16.746;2023-04-26T13:05:30;98782.31;;;24.43;25.42
48402;BME280;65988;52.422;16.746;2023-04-26T13:07:56;98558.25;;;22.94;26.35
48402;BME280;65988;52.422;16.746;2023-04-26T13:10:36;98948.88;;;24.25;26.61
48402;BME280;65988;52.422;16.746;2023-04-26T13:15:48;99123.59;;;25.56;26.86
48402;BME280;65988;52.422;16.746;2023-04-26T13:18:20;98914.88;;;24.14;26.91
48402;BME280;65988;52.422;16.746;2023-04-26T13:20:50;98619.47;;;22.28;27.48
48402;BME280;65988;52.422;16.746;2023-04-26T13:23:16;98749.94;;;22.83;27.19
48402;BME280;65988;52.422;16.746;2023-04-26T13:25:47;98791.56;;;22.80;27.53
48402;BME280;65988;52.422;16.746;2023-04-26T13:28:27;98926.28;;;23.72;27.54
48402;BME280;65988;52.422;16.746;2023-04-26T13:31:24;99060.81;;;24.33;27.56
48402;BME280;65988;52.422;16.746;2023-04-26T13:33:49;98666.09;;;22.36;27.78
48402;BME280;65988;52.422;16.746;2023-04-26T13:36:18;98985.59;;;23.60;27.49
48402;BME280;65988;52.422;16.746;2023-04-26T13:38:46;99039.47;;;23.83;27.67
48402;BME280;65988;52.422;16.746;2023-04-26T13:41:15;99236.66;;;25.29;27.19
48402;BME280;65988;52.422;16.746;2023-04-26T13:44:03;99318.44;;;26.56;26.70
48402;BME280;65988;52.422;16.746;2023-04-26T13:53:13;98719.50;;;25.65;24.87
48402;BME280;65988;52.422;16.746;2023-04-26T13:55:39;98655.75;;;24.25;25.32
48402;BME280;65988;52.422;16.746;2023-04-26T13:58:07;98616.63;;;23.56;25.69
48402;BME280;65988;52.422;16.746;2023-04-26T14:00:34;99040.88;;;24.55;26.62
48402;BME280;65988;52.422;16.746;2023-04-26T14:03:14;99148.25;;;25.65;26.72
48402;BME280;65988;52.422;16.746;2023-04-26T14:05:57;99072.75;;;24.53;27.04
48402;BME280;65988;52.422;16.746;2023-04-26T14:08:25;98760.56;;;23.08;27.56
48402;BME280;65988;52.422;16.746;2023-04-26T14:10:52;98925.44;;;23.63;26.91
48402;BME280;65988;52.422;16.746;2023-04-26T14:16:28;99113.75;;;25.98;26.14
48402;BME280;65988;52.422;16.746;2023-04-26T14:19:16;99093.66;;;26.20;25.67
48402;BME280;65988;52.422;16.746;2023-04-26T14:22:52;98977.31;;;25.78;25.69
48402;BME280;65988;52.422;16.746;2023-04-26T14:27:47;98658.66;;;23.74;25.61
48402;BME280;65988;52.422;16.746;2023-04-26T14:30:15;98855.75;;;23.90;25.84
48402;BME280;65988;52.422;16.746;2023-04-26T14:32:46;99066.91;;;25.17;26.07
48402;BME280;65988;52.422;16.746;2023-04-26T14:42:10;99240.94;;;27.56;24.78
48402;BME280;65988;52.422;16.746;2023-04-26T14:51:28;98976.97;;;25.82;24.50
48402;BME280;65988;52.422;16.746;2023-04-26T14:54:21;99133.22;;;26.92;25.00
48402;BME280;65988;52.422;16.746;2023-04-26T14:56:57;99056.69;;;26.35;24.64
48402;BME280;65988;52.422;16.746;2023-04-26T14:59:41;98688.78;;;24.21;25.31
48402;BME280;65988;52.422;16.746;2023-04-26T15:02:11;99025.81;;;24.31;26.13
48402;BME280;65988;52.422;16.746;2023-04-26T15:04:59;98888.88;;;23.85;26.31
48402;BME280;65988;52.422;16.746;2023-04-26T15:10:02;98620.38;;;21.58;27.28
48402;BME280;65988;52.422;16.746;2023-04-26T15:12:28;98859.28;;;22.35;27.92
48402;BME280;65988;52.422;16.746;2023-04-26T15:14:57;99142.88;;;23.79;27.99
48402;BME280;65988;52.422;16.746;2023-04-26T15:17:25;99242.78;;;23.91;28.43
48402;BME280;65988;52.422;16.746;2023-04-26T15:19:54;99107.16;;;23.40;28.16
48402;BME280;65988;52.422;16.746;2023-04-26T15:22:20;98813.03;;;22.59;27.91
48402;BME280;65988;52.422;16.746;2023-04-26T15:24:45;98941.75;;;23.67;27.28
48402;BME280;65988;52.422;16.746;2023-04-26T15:33:37;98826.69;;;22.88;27.30
48402;BME280;65988;52.422;16.746;2023-04-26T15:36:08;98954.94;;;22.80;27.79
48402;BME280;65988;52.422;16.746;2023-04-26T15:38:36;98905.78;;;22.70;27.73
48402;BME280;65988;52.422;16.746;2023-04-26T15:41:14;98947.13;;;22.70;27.78
48402;BME280;65988;52.422;16.746;2023-04-26T15:43:54;98930.69;;;23.02;27.04
48402;BME280;65988;52.422;16.746;2023-04-26T15:46:24;98924.66;;;23.10;27.19
48402;BME280;65988;52.422;16.746;2023-04-26T15:48:52;98464.06;;;21.00;27.39
48402;BME280;65988;52.422;16.746;2023-04-26T15:51:20;98821.69;;;22.07;27.74
48402;BME280;65988;52.422;16.746;2023-04-26T15:54:10;98882.19;;;22.43;27.70
48402;BME280;65988;52.422;16.746;2023-04-26T15:56:48;98910.22;;;21.98;28.23
48402;BME280;65988;52.422;16.746;2023-04-26T15:59:42;99050.88;;;23.31;27.79
48402;BME280;65988;52.422;16.746;2023-04-26T16:02:07;98697.69;;;20.83;29.05
48402;BME280;65988;52.422;16.746;2023-04-26T16:04:39;98998.09;;;21.87;29.26
48402;BME280;65988;52.422;16.746;2023-04-26T16:07:19;99143.34;;;22.66;29.40
48402;BME280;65988;52.422;16.746;2023-04-26T16:10:00;99071.78;;;22.43;29.05
48402;BME280;65988;52.422;16.746;2023-04-26T16:12:41;99156.59;;;22.74;29.29
48402;BME280;65988;52.422;16.746;2023-04-26T16:15:19;99266.59;;;24.00;28.63
48402;BME280;65988;52.422;16.746;2023-04-26T16:21:26;99115.38;;;23.19;28.70
48402;BME280;65988;52.422;16.746;2023-04-26T16:23:53;98824.06;;;21.08;30.22
48402;BME280;65988;52.422;16.746;2023-04-26T16:26:19;98888.25;;;21.06;30.01
48402;BME280;65988;52.422;16.746;2023-04-26T16:28:53;99199.78;;;22.63;29.66
48402;BME280;65988;52.422;16.746;2023-04-26T16:32:02;99247.59;;;22.96;29.71
48402;BME280;65988;52.422;16.746;2023-04-26T16:34:39;99158.97;;;22.02;30.20
48402;BME280;65988;52.422;16.746;2023-04-26T16:37:42;99115.03;;;22.86;29.06
48402;BME280;65988;52.422;16.746;2023-04-26T16:48:18;99077.28;;;23.57;28.03
48402;BME280;65988;52.422;16.746;2023-04-26T16:51:43;98972.72;;;21.96;29.16
48402;BME280;65988;52.422;16.746;2023-04-26T16:57:25;99085.19;;;23.13;28.04
48402;BME280;65988;52.422;16.746;2023-04-26T17:00:33;99047.59;;;22.57;28.51
48402;BME280;65988;52.422;16.746;2023-04-26T17:03:08;99057.59;;;21.98;29.07
48402;BME280;65988;52.422;16.746;2023-04-26T17:05:46;99088.00;;;22.48;28.69
48402;BME280;65988;52.422;16.746;2023-04-26T17:08:16;98965.56;;;21.60;29.09
48402;BME280;65988;52.422;16.746;2023-04-26T17:11:09;99144.97;;;23.31;27.90
48402;BME280;65988;52.422;16.746;2023-04-26T17:13:44;98951.78;;;21.76;28.87
48402;BME280;65988;52.422;16.746;2023-04-26T17:16:18;98861.78;;;21.55;28.86
48402;BME280;65988;52.422;16.746;2023-04-26T17:22:31;99168.00;;;22.93;28.40
48402;BME280;65988;52.422;16.746;2023-04-26T17:25:19;99056.03;;;22.33;28.71
48402;BME280;65988;52.422;16.746;2023-04-26T17:27:51;99170.41;;;22.20;29.69
48402;BME280;65988;52.422;16.746;2023-04-26T17:30:22;99107.66;;;21.78;29.83
48402;BME280;65988;52.422;16.746;2023-04-26T17:32:51;98860.28;;;20.47;30.58
48402;BME280;65988;52.422;16.746;2023-04-26T17:38:24;99187.78;;;22.03;30.17
48402;BME280;65988;52.422;16.746;2023-04-26T17:41:11;99281.22;;;22.47;30.06
48402;BME280;65988;52.422;16.746;2023-04-26T17:44:00;99174.03;;;22.19;29.97
48402;BME280;65988;52.422;16.746;2023-04-26T17:46:44;99109.09;;;21.53;30.45
48402;BME280;65988;52.422;16.746;2023-04-26T17:49:27;99184.47;;;21.92;30.26
48402;BME280;65988;52.422;16.746;2023-04-26T17:52:13;99165.38;;;22.37;29.84
48402;BME280;65988;52.422;16.746;2023-04-26T17:55:17;99086.28;;;21.24;30.62
48402;BME280;65988;52.422;16.746;2023-04-26T17:58:03;99160.31;;;21.10;30.91
48402;BME280;65988;52.422;16.746;2023-04-26T18:01:06;99212.50;;;21.53;30.48
48402;BME280;65988;52.422;16.746;2023-04-26T18:03:51;98911.84;;;20.29;30.81
48402;BME280;65988;52.422;16.746;2023-04-26T18:10:05;99123.22;;;21.23;30.57
48402;BME280;65988;52.422;16.746;2023-04-26T18:13:12;99263.44;;;21.72;30.74
48402;BME280;65988;52.422;16.746;2023-04-26T18:15:46;99246.09;;;21.50;30.84
48402;BME280;65988;52.422;16.746;2023-04-26T18:18:54;99215.72;;;20.97;31.32
48402;BME280;65988;52.422;16.746;2023-04-26T18:21:45;99326.84;;;21.69;30.63
48402;BME280;65988;52.422;16.746;2023-04-26T18:24:29;99214.53;;;21.30;31.20
48402;BME280;65988;52.422;16.746;2023-04-26T18:27:30;99232.69;;;21.63;30.81
48402;BME280;65988;52.422;16.746;2023-04-26T18:30:12;99288.63;;;21.75;30.88
48402;BME280;65988;52.422;16.746;2023-04-26T18:36:18;99239.50;;;20.95;31.79
48402;BME280;65988;52.422;16.746;2023-04-26T18:45:40;99301.53;;;21.17;31.22
48402;BME280;65988;52.422;16.746;2023-04-26T18:48:38;98960.31;;;20.25;31.45
48402;BME280;65988;52.422;16.746;2023-04-26T18:51:15;99263.22;;;20.74;31.78
48402;BME280;65988;52.422;16.746;2023-04-26T18:57:04;99337.13;;;21.31;31.80
48402;BME280;65988;52.422;16.746;2023-04-26T18:59:43;99312.47;;;21.23;31.79
48402;BME280;65988;52.422;16.746;2023-04-26T19:02:29;99286.72;;;20.76;32.05
48402;BME280;65988;52.422;16.746;2023-04-26T19:05:18;99284.81;;;20.78;32.13
48402;BME280;65988;52.422;16.746;2023-04-26T19:07:55;99301.22;;;20.70;31.97
48402;BME280;65988;52.422;16.746;2023-04-26T19:10:49;99327.91;;;21.06;31.93
48402;BME280;65988;52.422;16.746;2023-04-26T19:13:31;99309.69;;;20.52;32.46
48402;BME280;65988;52.422;16.746;2023-04-26T19:19:05;99057.34;;;19.74;32.69
48402;BME280;65988;52.422;16.746;2023-04-26T19:21:36;99303.53;;;20.00;33.00
48402;BME280;65988;52.422;16.746;2023-04-26T19:24:31;99323.06;;;20.28;32.84
48402;BME280;65988;52.422;16.746;2023-04-26T19:27:12;99341.75;;;20.35;33.01
48402;BME280;65988;52.422;16.746;2023-04-26T19:30:03;99314.97;;;20.20;32.72
48402;BME280;65988;52.422;16.746;2023-04-26T19:32:37;99367.19;;;20.56;32.73
48402;BME280;65988;52.422;16.746;2023-04-26T19:38:23;99248.28;;;19.80;33.21
48402;BME280;65988;52.422;16.746;2023-04-26T19:43:53;99116.13;;;19.51;32.90
48402;BME280;65988;52.422;16.746;2023-04-26T19:49:40;99390.69;;;20.36;32.76
48402;BME280;65988;52.422;16.746;2023-04-26T19:52:47;99335.88;;;20.22;32.62
48402;BME280;65988;52.422;16.746;2023-04-26T19:55:23;99357.81;;;20.63;32.41
48402;BME280;65988;52.422;16.746;2023-04-26T20:04:25;99329.28;;;19.95;32.97
48402;BME280;65988;52.422;16.746;2023-04-26T20:07:25;99265.94;;;19.78;33.03
48402;BME280;65988;52.422;16.746;2023-04-26T20:10:19;99358.66;;;19.89;33.45
48402;BME280;65988;52.422;16.746;2023-04-26T20:13:03;99294.63;;;19.47;33.43
48402;BME280;65988;52.422;16.746;2023-04-26T20:16:07;99357.09;;;20.18;33.16
48402;BME280;65988;52.422;16.746;2023-04-26T20:18:55;99296.31;;;19.92;33.06
48402;BME280;65988;52.422;16.746;2023-04-26T20:21:29;99349.00;;;19.89;33.13
48402;BME280;65988;52.422;16.746;2023-04-26T20:24:05;99365.19;;;19.94;33.03
48402;BME280;65988;52.422;16.746;2023-04-26T20:26:38;99316.72;;;19.77;33.10
48402;BME280;65988;52.422;16.746;2023-04-26T20:29:35;99348.88;;;19.91;33.31
48402;BME280;65988;52.422;16.746;2023-04-26T20:35:54;99281.13;;;19.63;33.03
48402;BME280;65988;52.422;16.746;2023-04-26T20:38:57;99257.69;;;19.51;33.09
48402;BME280;65988;52.422;16.746;2023-04-26T20:41:35;99335.56;;;19.60;33.55
48402;BME280;65988;52.422;16.746;2023-04-26T20:44:10;99036.09;;;18.60;33.45
48402;BME280;65988;52.422;16.746;2023-04-26T20:47:12;99349.47;;;19.94;33.00
48402;BME280;65988;52.422;16.746;2023-04-26T21:00:26;99315.28;;;19.07;33.74
48402;BME280;65988;52.422;16.746;2023-04-26T21:03:52;99361.34;;;19.32;34.02
48402;BME280;65988;52.422;16.746;2023-04-26T21:06:14;99309.47;;;18.92;34.09
48402;BME280;65988;52.422;16.746;2023-04-26T21:09:02;99302.81;;;18.99;34.19
48402;BME280;65988;52.422;16.746;2023-04-26T21:12:11;99260.91;;;18.88;33.91
48402;BME280;65988;52.422;16.746;2023-04-26T21:15:05;99392.75;;;17.30;36.53
48402;BME280;65988;52.422;16.746;2023-04-26T21:30:59;99365.59;;;17.57;36.16
48402;BME280;65988;52.422;16.746;2023-04-26T21:36:30;99421.84;;;18.24;35.29
48402;BME280;65988;52.422;16.746;2023-04-26T21:39:35;99382.19;;;18.06;35.19
48402;BME280;65988;52.422;16.746;2023-04-26T21:45:41;99374.31;;;18.30;34.97
48402;BME280;65988;52.422;16.746;2023-04-26T21:48:25;99351.22;;;18.24;34.70
48402;BME280;65988;52.422;16.746;2023-04-26T21:57:28;99330.81;;;17.81;35.35
48402;BME280;65988;52.422;16.746;2023-04-26T22:00:18;99398.13;;;17.90;35.52
48402;BME280;65988;52.422;16.746;2023-04-26T22:03:30;99355.38;;;17.91;35.34
48402;BME280;65988;52.422;16.746;2023-04-26T22:06:59;99374.72;;;17.51;35.97
48402;BME280;65988;52.422;16.746;2023-04-26T22:09:51;99383.78;;;17.58;35.81
48402;BME280;65988;52.422;16.746;2023-04-26T22:12:54;99450.81;;;18.09;35.54
48402;BME280;65988;52.422;16.746;2023-04-26T22:21:36;99387.09;;;17.73;35.67
48402;BME280;65988;52.422;16.746;2023-04-26T22:24:42;99363.69;;;17.72;35.33
48402;BME280;65988;52.422;16.746;2023-04-26T22:27:16;99455.88;;;18.24;35.11
48402;BME280;65988;52.422;16.746;2023-04-26T22:30:01;99401.16;;;17.84;35.18
48402;BME280;65988;52.422;16.746;2023-04-26T22:32:54;99384.66;;;17.83;35.19
48402;BME280;65988;52.422;16.746;2023-04-26T22:35:41;99246.78;;;17.50;34.86
48402;BME280;65988;52.422;16.746;2023-04-26T22:38:35;99440.56;;;18.06;35.20
48402;BME280;65988;52.422;16.746;2023-04-26T22:44:32;99351.31;;;17.50;35.54
48402;BME280;65988;52.422;16.746;2023-04-26T22:47:11;99152.78;;;16.75;36.00
48402;BME280;65988;52.422;16.746;2023-04-26T22:49:51;99205.84;;;16.76;36.26
48402;BME280;65988;52.422;16.746;2023-04-26T22:52:38;99505.88;;;17.82;36.12
48402;BME280;65988;52.422;16.746;2023-04-26T22:55:18;99511.41;;;17.90;36.10
48402;BME280;65988;52.422;16.746;2023-04-26T22:57:43;99221.59;;;16.74;35.89
48402;BME280;65988;52.422;16.746;2023-04-26T23:00:24;99489.50;;;17.67;36.14
48402;BME280;65988;52.422;16.746;2023-04-26T23:03:42;99517.16;;;18.33;35.28
48402;BME280;65988;52.422;16.746;2023-04-26T23:09:15;99516.75;;;17.89;36.06